Follow us on

Hardball (2001)

Theatrical Performance
Domestic Box Office $40,222,729Details
International Box Office $3,505,831Details
Worldwide Box Office $43,728,560
Further financial details...

  1. Summary
  2. News
  3. Box Office
  4. International
  5. Video Sales
  6. Full Financials
  7. Cast & Crew
  8. Trailer

Metrics

Latest Ranking on Cumulative Box Office Lists

RecordRankAmount
All Time Domestic Box Office (Rank 1,901-2,000) 1,967 $40,222,729
All Time International Box Office (Rank 4,501-4,600) 4,518 $3,505,831
All Time Worldwide Box Office (Rank 2,601-2,700) 2,681 $43,728,560

See the Box Office tab (Domestic) and International tab (International and Worldwide) for more Cumulative Box Office Records.


Movie Details

Production Budget:$21,000,000
Domestic Releases: September 14th, 2001 (Wide) by Paramount Pictures
Video Release: February 12th, 2002 by Paramount Home Video
MPAA Rating: PG-13 for thematic elements, language and some violence
Comparisons: Create your own comparison chart…
Keywords: Baseball
Source:Based on Fiction Book/Short Story
Genre:Drama
Production Method:Live Action
Creative Type:Contemporary Fiction

Cast

   Conor O'Neill
   Elizabeth Wilkes
John Hawkes    Ticky
Trevor Morgan   
D.B. Sweeney    Matt Hyland
Bryan Hearne    Andre
Julian Griffith    Jefferson Tibbs
Michael B. Jordan    Jamal
Graham Beckel   
Alan Ellis, Jr.    Miles
Kristopher Lofton    Clarence
Michael Perkins    Kofi
Brian Reed    Ray-Ray
DeWayne Warren    G-Baby
Mike McGlone   

Production and Technical Credits

Director   

Domestic Cumulative Box Office Records


Weekend Box Office Performance

DateRankGross% ChangeTheatersPer TheaterTotal GrossDays
2001/09/14 1 $9,386,342   2,137 $4,392   $9,386,342 3
2001/09/21 1 $8,058,338 -14% 2,210 $3,646   $19,280,569 10
2001/09/28 4 $5,156,888 -36% 2,218 $2,325   $26,263,390 17
2001/10/05 8 $3,566,255 -31% 2,314 $1,541   $30,623,626 24
2001/10/12 11 $2,348,310 -34% 2,012 $1,167   $33,758,502 31
2001/10/19 13 $1,557,215 -34% 1,652 $943   $35,794,632 38
2001/10/26 17 $947,875 -39% 975 $972   $37,011,261 45
2001/11/02 18 $674,314 -29% 710 $950   $37,844,278 52
2001/11/09 20 $461,375 -32% 506 $912   $38,437,776 59
2001/11/16 19 $304,772 -34% 382 $798   $38,846,498 66
2001/11/23 24 $218,776 -28% 276 $793   $39,203,847 73
2001/11/30 26 $132,888 -39% 168 $791   $39,375,546 80
2001/12/07 33 $78,341 -41% 123 $637   $39,477,600 87
2001/12/14 20 $209,441 +167% 286 $732   $39,697,363 94
2001/12/21 23 $136,136 -35% 202 $674   $39,925,486 101
2001/12/28 31 $97,224 -29% 186 $523   $40,087,867 108
2002/01/04 39 $48,650 -50% 149 $327   $40,147,977 115
2002/01/11 43 $29,463 -39% 77 $383   $40,188,973 122
2002/01/18 51 $18,855 -36% 77 $245   $40,219,708 129

Daily Box Office Performance

DateRankGross% ChangeTheatersPer TheaterTotal GrossDays
2001/09/14 1 $2,500,000   2,197 $1,138   $2,500,000 1
2001/09/15 1 $4,150,000 +66% 2,197 $1,889   $6,650,000 2
2001/09/16 1 $2,320,000 -44% 2,197 $1,056   $9,386,342 3
2001/09/17 1 $462,336 -80% 2,197 $210   $9,848,678 4
2001/09/18 1 $565,372 +22% 2,197 $257   $10,414,050 5
2001/09/19 1 $423,745 -25% 2,137 $198   $10,837,795 6
2001/09/20 1 $384,436 -9% 2,137 $180   $11,222,231 7
2001/09/21 1 $2,167,769 +464% 2,210 $981   $13,390,000 8
2001/09/22 1 $4,030,000 +86% 2,210 $1,824   $17,420,000 9
2001/09/23 1 $1,950,000 -52% 2,210 $882   $19,280,569 10
2001/09/24 1 $349,000 -82% 2,210 $158   $19,630,000 11
2001/09/25 1 $571,000 +64% 2,210 $258   $20,201,000 12
2001/09/26 1 $420,000 -26% 2,210 $190   $20,621,000 13
2001/09/27 1 $486,000 +16% 2,210 $220   $21,107,000 14
2001/09/28 5 $1,394,000 +187% 2,218 $628   $22,501,000 15
2001/09/29 4 $2,490,000 +79% 2,218 $1,123   $24,991,000 16
2001/09/30 4 $1,250,000 -50% 2,218 $564   $26,263,390 17
2001/10/01 5 $209,000 -83% 2,218 $94   $26,472,000 18
2001/10/02 5 $204,000 -2% 2,218 $92   $26,676,000 19
2001/10/03 5 $179,000 -12% 2,218 $81   $26,855,000 20
2001/10/04 5 $203,000 +13% 2,218 $92   $27,057,000 21
2001/10/05 8 $910,000 +348% 2,314 $393   $27,970,000 22
2001/10/06 8 $1,750,000 +92% 2,314 $756   $29,720,000 23
2001/10/07 8 $890,000 -49% 2,314 $385   $30,620,000 24
2001/10/08 8 $412,000 -54% 2,314 $178   $31,036,000 25
2001/10/09 9 $122,000 -70% 2,314 $53   $31,158,000 26
2001/10/10 9 $119,000 -2% 2,314 $51   $31,278,000 27
2001/10/11 9 $133,000 +12% 2,314 $57   $31,410,000 28

Weekly Box Office Performance

DateRankGross% ChangeTheatersPer TheaterTotal GrossDays
2001/09/14 1 $11,222,231   2,137 $5,251   $11,222,231 7
2001/09/21 1 $9,884,271 -12% 2,210 $4,473   $21,106,502 14
2001/09/28 4 $5,950,869 -40% 2,218 $2,683   $27,057,371 21
2001/10/05 8 $4,352,821 -27% 2,314 $1,881   $31,410,192 28
2001/10/12 11 $2,827,225 -35% 2,012 $1,405   $34,237,417 35
2001/10/19 13 $1,825,969 -35% 1,652 $1,105   $36,063,386 42
2001/10/26 17 $1,106,578 -39% 975 $1,135   $37,169,964 49
2001/11/02 20 $806,437 -27% 710 $1,136   $37,976,401 56
2001/11/09 20 $565,325 -30% 506 $1,117   $38,541,726 63
2001/11/16 19 $443,345 -22% 382 $1,161   $38,985,071 70
2001/11/23 25 $257,587 -42% 276 $933   $39,242,658 77
2001/11/30 31 $156,601 -39% 168 $932   $39,399,259 84
2001/12/07 38 $88,663 -43% 123 $721   $39,487,922 91
2001/12/14 21 $301,428 +240% 286 $1,054   $39,789,350 98
2001/12/21 26 $201,293 -33% 202 $997   $39,990,643 105
2001/12/28 35 $108,684 -46% 186 $584   $40,099,327 112
2002/01/04 40 $60,183 -45% 149 $404   $40,159,510 119
2002/01/11 45 $41,343 -31% 77 $537   $40,200,853 126
2002/01/18 57 $21,876 -47% 77 $284   $40,222,729 133

Full financial estimates for this film, including domestic and international box office, video sales, video rentals, TV and ancillary revenue are available through our research services. For more information, please contact us at research@the-numbers.com.